createdAt,value
2023-05-22T00:01:56.351Z,8.76
2023-05-22T00:04:23.249Z,8.52
2023-05-22T00:06:50.147Z,8.69
2023-05-22T00:09:16.988Z,8.55
2023-05-22T00:11:43.859Z,8.61
2023-05-22T00:14:10.703Z,8.50
2023-05-22T00:16:37.588Z,8.55
2023-05-22T00:19:04.593Z,8.59
2023-05-22T00:21:34.876Z,8.51
2023-05-22T00:24:02.216Z,8.47
2023-05-22T00:26:29.031Z,8.48
2023-05-22T00:28:55.912Z,8.56
2023-05-22T00:31:23.086Z,8.56
2023-05-22T00:33:50.015Z,8.53
2023-05-22T00:36:16.938Z,8.42
2023-05-22T00:38:43.762Z,8.38
2023-05-22T00:41:10.540Z,8.44
2023-05-22T00:43:38.957Z,8.51
2023-05-22T00:46:07.676Z,8.49
2023-05-22T00:48:34.593Z,8.49
2023-05-22T00:51:01.434Z,8.44
2023-05-22T00:53:28.765Z,8.40
2023-05-22T00:55:56.038Z,8.42
2023-05-22T00:58:22.827Z,8.48
2023-05-22T01:00:49.927Z,8.44
2023-05-22T01:03:17.091Z,8.42
2023-05-22T01:05:44.027Z,8.49
2023-05-22T01:08:11.061Z,8.36
2023-05-22T01:10:38.917Z,8.31
2023-05-22T01:13:25.960Z,8.37
2023-05-22T01:15:55.384Z,8.37
2023-05-22T01:18:38.637Z,8.35
2023-05-22T01:21:26.271Z,8.40
2023-05-22T01:24:21.217Z,8.40
2023-05-22T01:27:09.756Z,8.38
2023-05-22T01:29:39.569Z,8.38
2023-05-22T01:32:06.361Z,8.27
2023-05-22T01:34:33.177Z,8.32
2023-05-22T01:36:59.933Z,8.39
2023-05-22T01:39:26.722Z,8.30
2023-05-22T01:41:53.473Z,8.38
2023-05-22T01:44:20.420Z,8.32
2023-05-22T01:46:47.228Z,8.35
2023-05-22T01:49:14.016Z,8.32
2023-05-22T01:52:02.593Z,8.35
2023-05-22T01:54:55.762Z,8.35
2023-05-22T01:57:28.941Z,8.23
2023-05-22T02:00:10.080Z,8.30
2023-05-22T02:02:38.331Z,8.32
2023-05-22T02:05:05.592Z,8.21
2023-05-22T02:07:33.451Z,8.31
2023-05-22T02:10:00.229Z,8.34
2023-05-22T02:12:26.991Z,8.29
2023-05-22T02:14:53.799Z,8.26
2023-05-22T02:17:22.044Z,8.39
2023-05-22T02:19:48.969Z,8.30
2023-05-22T02:22:15.882Z,8.33
2023-05-22T02:24:44.323Z,8.36
2023-05-22T02:27:11.918Z,8.49
2023-05-22T02:29:38.997Z,8.45
2023-05-22T02:32:06.234Z,8.49
2023-05-22T02:34:33.118Z,8.49
2023-05-22T02:37:00.193Z,8.66
2023-05-22T02:39:27.460Z,8.63
2023-05-22T02:41:54.270Z,8.63
2023-05-22T02:44:21.102Z,8.78
2023-05-22T02:46:47.938Z,8.69
2023-05-22T02:49:14.838Z,8.78
2023-05-22T02:51:41.633Z,8.78
2023-05-22T02:54:08.454Z,8.89
2023-05-22T02:56:35.211Z,8.90
2023-05-22T02:59:02.043Z,9.03
2023-05-22T03:01:30.635Z,9.12
2023-05-22T03:03:57.553Z,9.23
2023-05-22T03:06:25.587Z,9.27
2023-05-22T03:08:53.225Z,9.61
2023-05-22T03:11:20.078Z,9.91
2023-05-22T03:13:46.880Z,10.12
2023-05-22T03:16:13.705Z,10.32
2023-05-22T03:18:40.643Z,10.48
2023-05-22T03:21:07.417Z,10.67
2023-05-22T03:23:34.258Z,10.79
2023-05-22T03:26:01.064Z,10.88
2023-05-22T03:28:27.893Z,10.94
2023-05-22T03:30:54.711Z,11.17
2023-05-22T03:33:21.603Z,11.42
2023-05-22T03:35:48.406Z,11.62
2023-05-22T03:38:15.609Z,11.88
2023-05-22T03:40:42.503Z,11.87
2023-05-22T03:43:09.242Z,12.07
2023-05-22T03:45:36.144Z,12.23
2023-05-22T03:48:02.995Z,12.50
2023-05-22T03:50:29.862Z,12.85
2023-05-22T03:52:56.667Z,13.20
2023-05-22T03:55:23.489Z,13.52
2023-05-22T03:57:50.634Z,13.85
2023-05-22T04:00:19.654Z,14.09
2023-05-22T04:02:46.934Z,14.42
2023-05-22T04:05:13.932Z,14.64
2023-05-22T04:07:40.753Z,14.89
2023-05-22T04:10:08.018Z,15.17
2023-05-22T04:12:34.821Z,15.30
2023-05-22T04:15:01.642Z,15.44
2023-05-22T04:17:32.920Z,15.82
2023-05-22T04:20:00.476Z,16.17
2023-05-22T04:22:27.924Z,16.41
2023-05-22T04:24:54.725Z,16.76
2023-05-22T04:27:22.745Z,17.13
2023-05-22T04:29:50.507Z,17.55
2023-05-22T04:32:18.585Z,17.94
2023-05-22T04:34:51.154Z,18.25
2023-05-22T04:37:18.568Z,18.60
2023-05-22T04:39:45.728Z,18.91
2023-05-22T04:42:16.000Z,19.09
2023-05-22T04:44:43.729Z,19.24
2023-05-22T04:47:14.613Z,19.49
2023-05-22T04:49:43.783Z,19.69
2023-05-22T04:52:11.653Z,19.78
2023-05-22T04:54:43.358Z,19.88
2023-05-22T04:57:10.222Z,19.96
2023-05-22T04:59:40.070Z,20.01
2023-05-22T05:02:07.195Z,20.20
2023-05-22T05:04:34.075Z,20.53
2023-05-22T05:07:02.602Z,20.80
2023-05-22T05:09:29.401Z,21.07
2023-05-22T05:11:56.253Z,21.23
2023-05-22T05:14:23.096Z,21.39
2023-05-22T05:16:51.855Z,21.55
2023-05-22T05:19:21.648Z,21.71
2023-05-22T05:21:49.427Z,21.76
2023-05-22T05:24:17.780Z,21.84
2023-05-22T05:26:44.727Z,22.12
2023-05-22T05:29:12.772Z,22.52
2023-05-22T05:31:39.909Z,22.55
2023-05-22T05:34:06.740Z,22.58
2023-05-22T05:36:33.569Z,22.94
2023-05-22T05:39:00.684Z,23.33
2023-05-22T05:41:27.528Z,23.64
2023-05-22T05:43:57.491Z,23.73
2023-05-22T05:46:24.379Z,23.80
2023-05-22T05:48:51.247Z,24.01
2023-05-22T05:51:18.121Z,24.36
2023-05-22T05:53:44.880Z,24.59
2023-05-22T05:56:11.833Z,24.74
2023-05-22T05:58:38.665Z,24.82
2023-05-22T06:01:05.477Z,25.10
2023-05-22T06:03:32.839Z,25.61
2023-05-22T06:05:59.706Z,25.96
2023-05-22T06:08:26.773Z,26.29
2023-05-22T06:10:53.636Z,26.39
2023-05-22T06:13:20.603Z,26.88
2023-05-22T06:15:48.436Z,27.54
2023-05-22T06:18:15.305Z,28.04
2023-05-22T06:20:42.248Z,28.54
2023-05-22T06:23:09.104Z,28.77
2023-05-22T06:25:36.044Z,29.01
2023-05-22T06:28:03.064Z,29.32
2023-05-22T06:30:39.493Z,29.16
2023-05-22T06:33:08.004Z,29.25
2023-05-22T06:35:34.948Z,28.91
2023-05-22T06:38:02.150Z,28.97
2023-05-22T06:40:30.147Z,29.42
2023-05-22T06:42:58.007Z,29.94
2023-05-22T06:45:24.767Z,29.69
2023-05-22T06:47:54.790Z,29.30
2023-05-22T06:50:22.229Z,29.21
2023-05-22T06:52:49.403Z,29.56
2023-05-22T06:55:16.531Z,29.19
2023-05-22T06:57:43.353Z,29.86
2023-05-22T07:00:12.814Z,30.09
2023-05-22T07:02:40.300Z,30.49
2023-05-22T07:05:07.465Z,30.94
2023-05-22T07:07:34.704Z,30.58
2023-05-22T07:10:01.480Z,30.96
2023-05-22T07:12:28.451Z,31.58
2023-05-22T07:14:55.508Z,30.77
2023-05-22T07:17:22.984Z,31.17
2023-05-22T07:19:49.809Z,31.57
2023-05-22T07:22:16.605Z,32.01
2023-05-22T07:24:43.602Z,32.26
2023-05-22T07:27:11.531Z,32.35
2023-05-22T07:29:38.375Z,32.05
2023-05-22T07:32:05.657Z,32.32
2023-05-22T07:34:34.296Z,32.60
2023-05-22T07:37:06.319Z,32.59
2023-05-22T07:39:33.144Z,32.73
2023-05-22T07:42:01.561Z,32.31
2023-05-22T07:44:28.771Z,32.84
2023-05-22T07:46:55.842Z,32.87
2023-05-22T07:49:24.218Z,32.69
2023-05-22T07:51:51.079Z,32.58
2023-05-22T07:54:18.471Z,33.05
2023-05-22T07:56:45.929Z,33.69
2023-05-22T07:59:12.772Z,33.92
2023-05-22T08:01:40.425Z,34.08
2023-05-22T08:04:07.544Z,34.35
2023-05-22T08:06:37.754Z,34.02
2023-05-22T08:09:05.137Z,34.40
2023-05-22T08:11:31.880Z,34.80
2023-05-22T08:13:58.720Z,35.19
2023-05-22T08:16:26.081Z,35.31
2023-05-22T08:18:52.946Z,35.44
2023-05-22T08:21:19.800Z,35.58
2023-05-22T08:23:46.607Z,35.88
2023-05-22T08:26:13.488Z,35.25
2023-05-22T08:28:44.154Z,35.21
2023-05-22T08:31:11.793Z,35.17
2023-05-22T08:33:38.683Z,35.52
2023-05-22T08:36:06.116Z,35.34
2023-05-22T08:38:33.102Z,34.87
2023-05-22T08:41:00.195Z,35.29
2023-05-22T08:43:28.518Z,35.83
2023-05-22T08:46:00.821Z,35.46
2023-05-22T08:48:31.162Z,34.73
2023-05-22T08:50:59.014Z,34.39
2023-05-22T08:53:26.694Z,34.20
2023-05-22T08:55:53.757Z,34.49
2023-05-22T08:58:21.107Z,34.31
2023-05-22T09:00:48.117Z,34.90
2023-05-22T09:03:15.720Z,35.52
2023-05-22T09:05:42.621Z,35.87
2023-05-22T09:08:19.825Z,36.21
2023-05-22T09:10:47.519Z,36.21
2023-05-22T09:13:27.390Z,36.05
2023-05-22T09:15:58.739Z,35.83
2023-05-22T09:18:29.123Z,35.74
2023-05-22T09:20:59.264Z,35.08
2023-05-22T09:23:27.777Z,34.87
2023-05-22T09:25:58.205Z,34.55
2023-05-22T09:28:25.520Z,34.89
2023-05-22T09:30:53.951Z,35.25
2023-05-22T09:33:22.041Z,36.03
2023-05-22T09:35:49.746Z,36.30
2023-05-22T09:38:16.557Z,34.80
2023-05-22T09:40:43.421Z,34.25
2023-05-22T09:43:10.883Z,33.87
2023-05-22T09:45:38.406Z,34.27
2023-05-22T09:48:05.977Z,33.81
2023-05-22T09:50:32.919Z,34.32
2023-05-22T09:53:03.924Z,34.61
2023-05-22T09:55:32.195Z,35.05
2023-05-22T09:58:01.328Z,35.13
2023-05-22T10:00:28.200Z,35.00
2023-05-22T10:03:03.587Z,35.29
2023-05-22T10:05:31.494Z,34.73
2023-05-22T10:08:03.106Z,34.87
2023-05-22T10:10:29.938Z,34.39
2023-05-22T10:13:09.206Z,34.58
2023-05-22T10:15:36.201Z,34.50
2023-05-22T10:18:03.288Z,34.01
2023-05-22T10:20:30.261Z,34.21
2023-05-22T10:22:57.128Z,33.84
2023-05-22T10:25:23.984Z,33.59
2023-05-22T10:27:53.769Z,33.69
2023-05-22T10:30:51.283Z,33.91
2023-05-22T10:33:38.007Z,33.28
2023-05-22T10:36:07.120Z,33.84
2023-05-22T10:38:39.497Z,33.17
2023-05-22T10:41:06.294Z,33.78
2023-05-22T10:43:33.093Z,33.43
2023-05-22T10:46:04.329Z,33.99
2023-05-22T10:48:37.597Z,34.20
2023-05-22T10:51:04.963Z,33.94
2023-05-22T10:53:32.360Z,33.88
2023-05-22T10:56:02.635Z,33.71
2023-05-22T10:58:30.676Z,33.33
2023-05-22T11:01:17.361Z,33.85
2023-05-22T11:04:08.946Z,33.48
2023-05-22T11:06:38.843Z,33.39
2023-05-22T11:09:28.952Z,33.23
2023-05-22T11:12:24.268Z,33.83
2023-05-22T11:14:52.171Z,33.38
2023-05-22T11:17:31.593Z,33.40
2023-05-22T11:20:08.317Z,32.84
2023-05-22T11:22:46.687Z,32.62
2023-05-22T11:25:18.015Z,32.70
2023-05-22T11:27:44.955Z,32.65
2023-05-22T11:30:12.055Z,32.55
2023-05-22T11:32:40.285Z,32.51
2023-05-22T11:35:10.325Z,32.15
2023-05-22T11:37:40.776Z,32.29
2023-05-22T11:40:08.278Z,32.43
2023-05-22T11:42:35.547Z,33.25
2023-05-22T11:45:02.806Z,32.89
2023-05-22T11:47:29.635Z,33.44
2023-05-22T11:50:03.104Z,33.71
2023-05-22T11:52:33.884Z,34.16
2023-05-22T11:55:00.806Z,34.50
2023-05-22T11:57:28.118Z,34.19
2023-05-22T11:59:54.984Z,34.23
2023-05-22T12:02:21.977Z,33.76
2023-05-22T12:04:56.287Z,33.73
2023-05-22T12:07:23.616Z,33.59
2023-05-22T12:09:50.443Z,33.15
2023-05-22T12:12:17.234Z,32.51
2023-05-22T12:14:46.851Z,32.65
2023-05-22T12:17:13.872Z,32.35
2023-05-22T12:19:41.386Z,32.17
2023-05-22T12:22:08.970Z,33.01
2023-05-22T12:24:48.302Z,33.23
2023-05-22T12:27:15.238Z,33.15
2023-05-22T12:29:42.397Z,33.48
2023-05-22T12:32:13.245Z,34.11
2023-05-22T12:34:44.678Z,33.81
2023-05-22T12:37:29.568Z,34.12
2023-05-22T12:40:04.226Z,33.43
2023-05-22T12:42:31.208Z,33.15
2023-05-22T12:44:58.327Z,34.11
2023-05-22T12:47:25.708Z,33.20
2023-05-22T12:49:52.689Z,33.93
2023-05-22T12:52:19.497Z,34.16
2023-05-22T12:54:46.274Z,33.89
2023-05-22T12:57:13.154Z,33.79
2023-05-22T12:59:39.966Z,33.46
2023-05-22T13:02:07.008Z,34.00
2023-05-22T13:04:33.880Z,33.68
2023-05-22T13:07:00.763Z,34.05
2023-05-22T13:09:27.690Z,33.65
2023-05-22T13:11:55.412Z,34.28
2023-05-22T13:14:22.521Z,34.17
2023-05-22T13:16:49.329Z,34.27
2023-05-22T13:19:16.282Z,33.27
2023-05-22T13:21:43.501Z,33.19
2023-05-22T13:24:10.332Z,32.78
2023-05-22T13:26:37.108Z,33.12
2023-05-22T13:29:03.919Z,33.44
2023-05-22T13:31:33.376Z,33.46
2023-05-22T13:34:02.930Z,33.23
2023-05-22T13:36:30.150Z,33.41
2023-05-22T13:38:57.183Z,33.13
2023-05-22T13:41:23.994Z,32.41
2023-05-22T13:43:50.733Z,32.53
2023-05-22T13:46:18.263Z,31.77
2023-05-22T13:48:45.184Z,31.41
2023-05-22T13:51:11.964Z,31.29
2023-05-22T13:53:38.981Z,31.13
2023-05-22T13:56:06.061Z,31.07
2023-05-22T13:58:32.964Z,31.25
2023-05-22T14:00:59.824Z,30.93
2023-05-22T14:03:26.705Z,31.59
2023-05-22T14:05:53.578Z,31.30
2023-05-22T14:08:20.407Z,31.44
2023-05-22T14:10:47.205Z,31.53
2023-05-22T14:13:15.266Z,31.32
2023-05-22T14:15:42.786Z,31.37
2023-05-22T14:18:09.766Z,30.96
2023-05-22T14:20:36.593Z,30.46
2023-05-22T14:23:03.391Z,30.57
2023-05-22T14:25:30.156Z,30.67
2023-05-22T14:27:56.974Z,30.51
2023-05-22T14:30:23.754Z,30.21
2023-05-22T14:32:50.589Z,30.55
2023-05-22T14:35:17.351Z,30.40
2023-05-22T14:37:44.164Z,30.02
2023-05-22T14:40:11.127Z,29.57
2023-05-22T14:42:37.967Z,29.46
2023-05-22T14:45:05.216Z,29.53
2023-05-22T14:47:31.908Z,29.58
2023-05-22T14:50:14.163Z,29.32
2023-05-22T14:52:44.663Z,29.17
2023-05-22T14:55:11.467Z,28.53
2023-05-22T14:57:38.302Z,28.10
2023-05-22T15:00:12.470Z,28.44
2023-05-22T15:02:39.570Z,28.24
2023-05-22T15:05:07.369Z,27.79
2023-05-22T15:10:05.422Z,27.22
2023-05-22T15:12:32.636Z,27.29
2023-05-22T15:14:59.417Z,27.31
2023-05-22T15:17:26.386Z,26.89
2023-05-22T15:19:53.211Z,26.73
2023-05-22T15:22:20.311Z,26.41
2023-05-22T15:24:47.556Z,26.12
2023-05-22T15:27:14.353Z,25.43
2023-05-22T15:29:41.808Z,24.95
2023-05-22T15:32:09.178Z,24.78
2023-05-22T15:34:36.119Z,24.43
2023-05-22T15:37:02.933Z,24.26
2023-05-22T15:39:29.696Z,24.01
2023-05-22T15:42:05.990Z,23.69
2023-05-22T15:44:33.659Z,22.98
2023-05-22T15:47:00.535Z,22.73
2023-05-22T15:49:30.187Z,22.93
2023-05-22T15:51:58.084Z,22.97
2023-05-22T15:54:24.919Z,23.00
2023-05-22T15:56:51.654Z,22.87
2023-05-22T15:59:18.409Z,22.44
2023-05-22T16:01:45.328Z,22.09
2023-05-22T16:04:12.275Z,22.15
2023-05-22T16:06:39.017Z,22.18
2023-05-22T16:09:06.198Z,22.28
2023-05-22T16:11:33.624Z,22.36
2023-05-22T16:14:00.445Z,22.33
2023-05-22T16:16:27.393Z,22.14
2023-05-22T16:18:54.278Z,21.87
2023-05-22T16:21:21.152Z,21.79
2023-05-22T16:23:47.949Z,21.62
2023-05-22T16:26:14.986Z,21.38
2023-05-22T16:28:44.516Z,20.92
2023-05-22T16:31:13.007Z,20.82
2023-05-22T16:33:39.832Z,20.60
2023-05-22T16:36:06.990Z,20.26
2023-05-22T16:38:33.746Z,20.12
2023-05-22T16:41:01.327Z,20.05
2023-05-22T16:43:28.082Z,19.88
2023-05-22T16:45:54.832Z,19.63
2023-05-22T16:48:21.637Z,19.55
2023-05-22T16:50:48.571Z,19.27
2023-05-22T16:53:17.945Z,19.12
2023-05-22T16:55:44.729Z,18.90
2023-05-22T16:58:12.893Z,18.83
2023-05-22T17:00:40.566Z,18.77
2023-05-22T17:03:08.388Z,18.78
2023-05-22T17:05:36.385Z,18.63
2023-05-22T17:08:03.309Z,18.56
2023-05-22T17:10:30.117Z,18.44
2023-05-22T17:12:56.886Z,18.32
2023-05-22T17:15:23.648Z,18.11
2023-05-22T17:17:50.853Z,18.09
2023-05-22T17:20:17.834Z,17.97
2023-05-22T17:22:44.686Z,17.80
2023-05-22T17:25:11.472Z,17.75
2023-05-22T17:27:38.233Z,17.70
2023-05-22T17:30:06.997Z,17.59
2023-05-22T17:32:34.562Z,17.53
2023-05-22T17:35:02.362Z,17.50
2023-05-22T17:37:29.128Z,17.48
2023-05-22T17:39:55.858Z,17.30
2023-05-22T17:42:22.950Z,17.30
2023-05-22T17:44:49.777Z,17.22
2023-05-22T17:47:16.522Z,17.16
2023-05-22T17:49:43.314Z,17.04
2023-05-22T17:52:11.147Z,16.92
2023-05-22T17:54:37.870Z,16.94
2023-05-22T17:57:04.728Z,16.83
2023-05-22T17:59:32.544Z,16.76
2023-05-22T18:01:59.447Z,16.68
2023-05-22T18:04:26.979Z,16.67
2023-05-22T18:06:53.953Z,16.54
2023-05-22T18:09:21.345Z,16.30
2023-05-22T18:11:54.684Z,16.19
2023-05-22T18:14:21.460Z,16.12
2023-05-22T18:16:48.240Z,16.20
2023-05-22T18:19:14.993Z,16.15
2023-05-22T18:21:41.895Z,15.92
2023-05-22T18:24:08.670Z,15.85
2023-05-22T18:26:35.485Z,15.59
2023-05-22T18:29:02.205Z,15.23
2023-05-22T18:31:29.134Z,15.38
2023-05-22T18:33:56.021Z,15.26
2023-05-22T18:36:22.785Z,15.11
2023-05-22T18:38:49.573Z,14.80
2023-05-22T18:41:16.276Z,14.64
2023-05-22T18:43:43.361Z,14.67
2023-05-22T18:46:10.105Z,14.52
2023-05-22T18:48:36.880Z,14.31
2023-05-22T18:51:03.740Z,14.51
2023-05-22T18:53:31.548Z,14.48
2023-05-22T18:55:58.341Z,14.38
2023-05-22T18:58:25.078Z,14.31
2023-05-22T19:00:54.250Z,14.19
2023-05-22T19:03:21.074Z,14.24
2023-05-22T19:05:47.902Z,14.15
2023-05-22T19:08:20.572Z,14.02
2023-05-22T19:10:50.399Z,13.95
2023-05-22T19:13:17.125Z,13.93
2023-05-22T19:15:43.904Z,13.81
2023-05-22T19:18:11.519Z,13.77
2023-05-22T19:20:38.414Z,13.52
2023-05-22T19:23:06.563Z,13.40
2023-05-22T19:25:33.269Z,13.33
2023-05-22T19:28:00.033Z,13.28
2023-05-22T19:30:26.824Z,13.20
2023-05-22T19:32:55.959Z,12.89
2023-05-22T19:35:22.875Z,13.05
2023-05-22T19:37:49.671Z,13.08
2023-05-22T19:40:16.487Z,12.98
2023-05-22T19:42:43.374Z,12.91
2023-05-22T19:45:10.585Z,12.92
2023-05-22T19:47:37.402Z,12.85
2023-05-22T19:50:04.422Z,12.73
2023-05-22T19:52:31.146Z,12.66
2023-05-22T19:54:58.019Z,12.62
2023-05-22T19:57:24.855Z,12.54
2023-05-22T19:59:51.559Z,12.40
2023-05-22T20:02:18.330Z,12.25
2023-05-22T20:04:48.572Z,12.05
2023-05-22T20:07:15.725Z,12.20
2023-05-22T20:09:42.612Z,12.14
2023-05-22T20:12:10.496Z,12.04
2023-05-22T20:14:37.807Z,11.96
2023-05-22T20:17:04.731Z,11.89
2023-05-22T20:19:32.649Z,11.85
2023-05-22T20:21:59.528Z,11.64
2023-05-22T20:24:26.339Z,11.63
2023-05-22T20:26:53.224Z,11.51
2023-05-22T20:29:20.067Z,11.49
2023-05-22T20:31:46.940Z,11.38
2023-05-22T20:34:13.882Z,11.29
2023-05-22T20:36:42.620Z,11.20
2023-05-22T20:39:10.880Z,11.16
2023-05-22T20:41:38.554Z,11.20
2023-05-22T20:44:05.328Z,11.06
2023-05-22T20:46:32.243Z,11.12
2023-05-22T20:48:59.540Z,11.01
2023-05-22T20:51:32.452Z,10.95
2023-05-22T20:54:02.143Z,10.92
2023-05-22T20:56:30.120Z,10.96
2023-05-22T20:58:56.954Z,10.89
2023-05-22T21:01:24.458Z,10.93
2023-05-22T21:03:51.777Z,10.77
2023-05-22T21:06:19.162Z,10.85
2023-05-22T21:08:45.901Z,10.61
2023-05-22T21:11:12.671Z,10.80
2023-05-22T21:13:39.435Z,10.60
2023-05-22T21:16:06.607Z,10.68
2023-05-22T21:18:33.382Z,10.55
2023-05-22T21:21:00.258Z,10.61
2023-05-22T21:23:26.965Z,10.59
2023-05-22T21:25:53.706Z,10.43
2023-05-22T21:28:20.490Z,10.32
2023-05-22T21:30:47.311Z,10.42
2023-05-22T21:33:14.015Z,10.35
2023-05-22T21:35:41.038Z,10.43
2023-05-22T21:38:07.804Z,10.29
2023-05-22T21:40:34.511Z,10.27
2023-05-22T21:43:01.276Z,10.33
2023-05-22T21:45:28.024Z,10.25
2023-05-22T21:47:54.884Z,10.27
2023-05-22T21:50:21.661Z,10.27
2023-05-22T21:52:48.421Z,10.13
2023-05-22T21:55:15.162Z,10.15
2023-05-22T21:57:41.973Z,10.20
2023-05-22T22:00:09.218Z,10.24
2023-05-22T22:02:36.194Z,10.23
2023-05-22T22:05:03.074Z,10.17
2023-05-22T22:07:29.819Z,10.14
2023-05-22T22:09:58.549Z,10.17
2023-05-22T22:12:25.383Z,10.19
2023-05-22T22:14:52.130Z,10.02
2023-05-22T22:17:23.813Z,10.08
2023-05-22T22:19:53.573Z,10.03
2023-05-22T22:22:22.579Z,10.08
2023-05-22T22:24:49.462Z,9.96
2023-05-22T22:27:16.440Z,9.90
2023-05-22T22:29:43.772Z,9.91
2023-05-22T22:32:10.613Z,9.90
2023-05-22T22:34:37.693Z,9.78
2023-05-22T22:37:05.959Z,9.74
2023-05-22T22:39:32.775Z,9.69
2023-05-22T22:42:04.141Z,9.68
2023-05-22T22:44:31.787Z,9.75
2023-05-22T22:46:58.594Z,9.83
2023-05-22T22:49:25.358Z,9.70
2023-05-22T22:51:52.559Z,9.76
2023-05-22T22:54:19.415Z,9.57
2023-05-22T22:56:46.927Z,9.68
2023-05-22T22:59:13.769Z,9.60
2023-05-22T23:01:40.706Z,9.54
2023-05-22T23:04:07.611Z,9.53
2023-05-22T23:06:34.791Z,9.47
2023-05-22T23:09:03.190Z,9.53
2023-05-22T23:11:37.460Z,9.32
2023-05-22T23:14:08.313Z,9.51
2023-05-22T23:16:36.210Z,9.43
2023-05-22T23:19:06.404Z,9.38
2023-05-22T23:21:33.360Z,9.36
2023-05-22T23:24:00.680Z,9.44
2023-05-22T23:26:31.291Z,9.37
2023-05-22T23:29:01.347Z,9.29
2023-05-22T23:31:30.857Z,9.35
2023-05-22T23:33:58.106Z,9.20
2023-05-22T23:36:25.398Z,9.31
2023-05-22T23:38:52.133Z,9.23
2023-05-22T23:41:19.017Z,9.13
2023-05-22T23:43:46.153Z,9.32
2023-05-22T23:46:14.216Z,9.16
2023-05-22T23:48:43.777Z,9.12
2023-05-22T23:51:14.542Z,9.06
2023-05-22T23:53:41.956Z,8.98
2023-05-22T23:56:09.090Z,9.06
2023-05-22T23:58:37.040Z,8.98
